Time;durP1;ratioP1;P1;durP2;ratioP2;P2;SDS_P1;SDS_P2;PMS_P1;PMS_P2;Temp;Humidity;BMP_temperature;BMP_pressure;BME280_temperature;BME280_humidity;BME280_pressure;Samples;Min_cycle;Max_cycle;Signal;HPM_P1;HPM_P2
2022/05/05 00:02:28;;;;;;;7.50;7.00;;;16.90;49.60;;;;;;20896;6733;117016;-77
2022/05/05 00:05:04;;;;;;;8.17;7.00;;;16.60;50.00;;;;;;20864;6744;117836;-77
2022/05/05 00:07:42;;;;;;;7.07;6.40;;;16.10;50.70;;;;;;20835;6745;116993;-79
2022/05/05 00:15:46;;;;;;;7.93;7.43;;;16.30;50.80;;;;;;20682;6730;290939;-77
2022/05/05 00:18:22;;;;;;;6.90;6.33;;;16.60;50.50;;;;;;20890;6730;117115;-77
2022/05/05 00:20:57;;;;;;;7.78;7.32;;;16.40;50.70;;;;;;20580;6730;336226;-77
2022/05/05 00:23:33;;;;;;;7.20;6.70;;;16.40;50.70;;;;;;20860;6745;117137;-77
2022/05/05 00:26:08;;;;;;;8.18;7.65;;;16.10;50.90;;;;;;20516;6778;307369;-76
2022/05/05 00:28:45;;;;;;;8.33;7.73;;;16.30;51.20;;;;;;20591;6763;307608;-76
2022/05/05 00:31:20;;;;;;;7.20;6.80;;;16.30;51.20;;;;;;20688;6763;117594;-77
2022/05/05 00:33:56;;;;;;;8.40;7.87;;;16.10;51.30;;;;;;20574;6758;277047;-77
2022/05/05 00:36:31;;;;;;;8.20;7.60;;;16.10;51.30;;;;;;20810;6756;122952;-76
2022/05/05 00:39:07;;;;;;;8.40;7.90;;;15.90;51.60;;;;;;20612;6757;277332;-77
2022/05/05 00:41:42;;;;;;;8.27;7.80;;;16.00;51.80;;;;;;20659;6741;119017;-77
2022/05/05 00:44:19;;;;;;;8.65;8.25;;;15.90;51.80;;;;;;20602;6760;317061;-76
2022/05/05 00:46:54;;;;;;;8.20;7.40;;;15.90;51.80;;;;;;20883;6741;116935;-77
2022/05/05 00:49:30;;;;;;;7.97;7.37;;;15.80;52.00;;;;;;20881;6741;117854;-77
2022/05/05 00:52:06;;;;;;;8.40;7.87;;;15.50;52.40;;;;;;20647;6763;117738;-77
2022/05/05 00:54:41;;;;;;;8.55;7.85;;;15.20;52.90;;;;;;20659;6743;335577;-77
2022/05/05 00:57:18;;;;;;;8.03;7.53;;;15.40;52.80;;;;;;20868;6743;117152;-77
2022/05/05 00:59:53;;;;;;;7.97;7.47;;;15.40;52.70;;;;;;20848;6743;117390;-78
2022/05/05 01:02:30;;;;;;;7.57;7.17;;;15.20;53.10;;;;;;20892;6741;116969;-78
2022/05/05 01:05:09;;;;;;;8.23;7.53;;;15.10;53.50;;;;;;20883;6741;116938;-78
2022/05/05 01:07:41;;;;;;;8.50;8.00;;;14.90;53.70;;;;;;20658;6741;275981;-78
2022/05/05 01:10:17;;;;;;;8.20;7.60;;;15.20;53.50;;;;;;20846;6741;117241;-78
2022/05/05 01:12:54;;;;;;;8.33;7.60;;;15.20;53.30;;;;;;20868;6741;116993;-77
2022/05/05 01:15:29;;;;;;;7.40;6.80;;;15.10;53.60;;;;;;20867;6741;117604;-77
2022/05/05 01:18:05;;;;;;;8.07;7.47;;;15.00;54.00;;;;;;20849;6741;116939;-77
2022/05/05 01:20:44;;;;;;;8.47;7.83;;;14.80;54.20;;;;;;20806;6741;120780;-78
2022/05/05 01:23:19;;;;;;;7.20;6.80;;;14.80;54.50;;;;;;20843;6745;117481;-78
2022/05/05 01:28:51;;;;;;;7.43;6.93;;;14.60;54.80;;;;;;20842;6749;117199;-78
2022/05/05 01:31:26;;;;;;;8.33;7.83;;;14.60;54.80;;;;;;20562;6760;308468;-78
2022/05/05 01:34:02;;;;;;;8.30;7.80;;;15.00;54.50;;;;;;20894;6745;117558;-78
2022/05/05 01:36:38;;;;;;;7.80;7.30;;;15.10;54.10;;;;;;20905;6745;117969;-78
2022/05/05 01:39:13;;;;;;;9.32;8.80;;;15.00;54.30;;;;;;20692;6745;340271;-78
2022/05/05 01:41:49;;;;;;;9.23;8.67;;;15.30;53.90;;;;;;20528;6745;307552;-77
2022/05/05 01:44:25;;;;;;;8.13;7.63;;;15.60;52.90;;;;;;20854;6760;117215;-77
2022/05/05 01:47:01;;;;;;;8.83;8.23;;;15.60;52.90;;;;;;20857;6760;117197;-78
2022/05/05 01:49:36;;;;;;;8.93;8.50;;;15.30;53.30;;;;;;20630;6760;340012;-78
2022/05/05 01:52:12;;;;;;;8.10;7.70;;;15.50;53.30;;;;;;20642;6760;117619;-82
2022/05/05 01:54:48;;;;;;;8.80;8.30;;;15.40;53.30;;;;;;20645;6745;277125;-78
2022/05/05 01:57:25;;;;;;;9.90;9.30;;;15.60;52.90;;;;;;20658;6742;309049;-78
2022/05/05 02:00:02;;;;;;;9.47;8.90;;;15.90;52.30;;;;;;20628;6791;309481;-78
2022/05/05 02:02:37;;;;;;;9.40;8.80;;;16.10;51.90;;;;;;20589;6763;340509;-78
2022/05/05 02:05:12;;;;;;;8.50;8.00;;;16.00;51.90;;;;;;20800;6761;117432;-78
2022/05/05 02:07:48;;;;;;;8.53;8.07;;;16.00;51.80;;;;;;20617;6748;307125;-78
2022/05/05 02:10:24;;;;;;;8.87;8.27;;;16.00;51.80;;;;;;20623;6749;331933;-78
2022/05/05 02:12:59;;;;;;;8.10;7.37;;;16.20;51.70;;;;;;20861;6760;117154;-78
2022/05/05 02:15:34;;;;;;;8.57;7.95;;;16.10;52.10;;;;;;20622;6760;300262;-78
2022/05/05 02:18:10;;;;;;;9.57;8.97;;;16.10;52.40;;;;;;20651;6760;277127;-78
2022/05/05 02:20:46;;;;;;;8.13;7.63;;;16.30;51.50;;;;;;20794;6760;116927;-78
2022/05/05 02:23:23;;;;;;;8.43;7.93;;;16.10;51.80;;;;;;20871;6760;117368;-79
2022/05/05 02:25:58;;;;;;;8.97;8.37;;;15.80;52.50;;;;;;20841;6760;117512;-78
2022/05/05 02:28:34;;;;;;;9.13;8.43;;;15.50;53.00;;;;;;20651;6760;306541;-77
2022/05/05 02:31:09;;;;;;;8.50;7.80;;;15.60;53.10;;;;;;20733;6760;117516;-77
2022/05/05 02:33:45;;;;;;;9.18;8.68;;;15.60;53.10;;;;;;20634;6760;306141;-78
2022/05/05 02:39:17;;;;;;;8.93;8.23;;;15.60;52.90;;;;;;20863;6760;117427;-78
2022/05/05 02:41:53;;;;;;;8.47;7.80;;;15.40;53.50;;;;;;20675;6760;118534;-78
2022/05/05 02:44:28;;;;;;;9.10;8.40;;;15.20;53.90;;;;;;20860;6760;117646;-78
2022/05/05 02:47:04;;;;;;;8.10;7.60;;;15.00;54.20;;;;;;20863;6760;117548;-78
2022/05/05 02:49:40;;;;;;;8.97;8.40;;;14.80;54.50;;;;;;20576;6760;338245;-77
2022/05/05 02:52:15;;;;;;;9.55;8.60;;;15.10;54.50;;;;;;20443;6753;308248;-79
2022/05/05 02:54:51;;;;;;;10.60;8.87;;;15.60;53.90;;;;;;20866;6743;120902;-78
2022/05/05 02:57:26;;;;;;;8.13;7.63;;;15.50;53.70;;;;;;20847;6749;117294;-78
2022/05/05 03:00:07;;;;;;;8.88;8.18;;;15.30;54.00;;;;;;20599;6749;306743;-77
2022/05/05 03:02:41;;;;;;;8.43;7.93;;;15.40;54.10;;;;;;20900;6734;117004;-77
2022/05/05 03:05:16;;;;;;;8.20;7.60;;;15.40;54.00;;;;;;20892;6734;119270;-77
2022/05/05 03:07:53;;;;;;;9.50;8.80;;;15.20;54.40;;;;;;20884;6734;116910;-77
2022/05/05 03:10:28;;;;;;;9.00;8.50;;;14.90;54.60;;;;;;20639;6734;308170;-80
2022/05/05 03:13:04;;;;;;;9.13;8.63;;;15.10;54.50;;;;;;20875;6745;117054;-77
2022/05/05 03:15:40;;;;;;;9.00;8.50;;;15.10;54.50;;;;;;20631;6760;299539;-77
2022/05/05 03:18:15;;;;;;;8.27;7.77;;;15.20;54.20;;;;;;20853;6748;117146;-77
2022/05/05 03:20:51;;;;;;;8.90;8.30;;;15.10;54.10;;;;;;20733;6760;117295;-77
2022/05/05 03:23:26;;;;;;;10.48;9.88;;;14.80;54.40;;;;;;20653;6745;281178;-77
2022/05/05 03:26:03;;;;;;;10.10;9.50;;;15.00;54.10;;;;;;20585;6758;312696;-77
2022/05/05 03:28:39;;;;;;;9.43;8.93;;;15.50;53.50;;;;;;20595;6761;307074;-74
2022/05/05 03:31:15;;;;;;;9.60;9.00;;;15.50;53.50;;;;;;20466;6778;307780;-74
2022/05/05 03:33:50;;;;;;;8.30;7.80;;;15.70;53.10;;;;;;20743;6778;117838;-75
2022/05/05 03:36:26;;;;;;;10.13;9.45;;;15.40;53.30;;;;;;20574;6771;307163;-75
2022/05/05 03:39:02;;;;;;;8.37;7.87;;;15.40;53.10;;;;;;20859;6743;117319;-74
2022/05/05 03:41:37;;;;;;;8.17;7.77;;;15.30;53.50;;;;;;20455;6749;321413;-75
2022/05/05 03:44:13;;;;;;;8.30;7.63;;;15.40;53.90;;;;;;20729;6782;117651;-75
2022/05/05 03:46:48;;;;;;;7.57;7.13;;;15.30;54.00;;;;;;20805;6760;117237;-75
2022/05/05 03:49:27;;;;;;;8.13;7.53;;;15.10;54.60;;;;;;20817;6760;122912;-76
2022/05/05 03:52:03;;;;;;;10.52;9.93;;;14.90;54.90;;;;;;20468;6745;335304;-76
2022/05/05 03:54:41;;;;;;;8.40;7.93;;;15.10;54.20;;;;;;20866;6745;117272;-75
2022/05/05 03:57:16;;;;;;;9.20;8.60;;;15.10;54.20;;;;;;20917;6730;117463;-79
2022/05/05 03:59:51;;;;;;;8.33;7.93;;;14.90;54.70;;;;;;20884;6730;117223;-76
2022/05/05 04:02:27;;;;;;;10.02;9.43;;;14.80;55.10;;;;;;20653;6745;278365;-77
2022/05/05 04:05:03;;;;;;;10.47;9.83;;;15.10;54.70;;;;;;20628;6749;307168;-77
2022/05/05 04:07:38;;;;;;;11.05;10.38;;;15.40;53.50;;;;;;20624;6749;311272;-77
2022/05/05 04:10:14;;;;;;;10.65;10.00;;;15.70;52.90;;;;;;20575;6760;309376;-77
2022/05/05 04:12:49;;;;;;;8.87;8.37;;;15.90;52.50;;;;;;20867;6745;117220;-77
2022/05/05 04:15:25;;;;;;;9.47;8.87;;;15.70;52.90;;;;;;20652;6745;335563;-78
2022/05/05 04:18:01;;;;;;;10.30;9.60;;;15.70;53.20;;;;;;20686;6744;280862;-80
2022/05/05 04:20:36;;;;;;;11.00;10.20;;;15.90;52.50;;;;;;20553;6760;280532;-80
2022/05/05 04:23:13;;;;;;;8.83;8.37;;;16.10;52.00;;;;;;20803;6760;117967;-79
2022/05/05 04:25:49;;;;;;;9.03;8.43;;;15.40;53.30;;;;;;20786;6763;123135;-79
2022/05/05 04:28:25;;;;;;;11.60;10.70;;;15.40;53.30;;;;;;20546;6775;311406;-78
2022/05/05 04:31:00;;;;;;;10.60;9.93;;;15.50;53.20;;;;;;20489;6775;278586;-76
2022/05/05 04:33:37;;;;;;;9.65;9.05;;;15.90;52.30;;;;;;20574;6760;323888;-77
2022/05/05 04:36:12;;;;;;;9.37;8.80;;;15.90;52.30;;;;;;20800;6764;117073;-76
2022/05/05 04:38:48;;;;;;;9.40;8.80;;;15.80;52.60;;;;;;20794;6764;118004;-76
2022/05/05 04:41:23;;;;;;;10.20;9.40;;;15.40;53.20;;;;;;20757;6743;120461;-77
2022/05/05 04:44:01;;;;;;;10.00;9.40;;;15.20;53.90;;;;;;20577;6763;319961;-75
2022/05/05 04:46:36;;;;;;;9.87;9.27;;;15.40;54.20;;;;;;20615;6775;306841;-75
2022/05/05 04:49:12;;;;;;;10.13;9.50;;;15.70;53.30;;;;;;20616;6775;281045;-74
2022/05/05 04:51:49;;;;;;;9.80;9.17;;;16.00;52.70;;;;;;20650;6764;119333;-76
2022/05/05 04:54:27;;;;;;;10.13;9.63;;;15.90;52.80;;;;;;20618;6758;306865;-73
2022/05/05 04:57:03;;;;;;;8.73;8.23;;;16.00;52.90;;;;;;20832;6756;117732;-74
2022/05/05 04:59:38;;;;;;;9.63;8.90;;;15.80;53.10;;;;;;20745;6775;118868;-75
2022/05/05 05:02:14;;;;;;;10.57;9.60;;;15.40;54.20;;;;;;20658;6753;118451;-73
2022/05/05 05:04:50;;;;;;;9.63;9.03;;;15.30;54.10;;;;;;20876;6739;117162;-72
2022/05/05 05:07:26;;;;;;;9.07;8.47;;;15.20;54.50;;;;;;20877;6739;117742;-72
2022/05/05 05:10:01;;;;;;;9.60;9.00;;;15.10;54.80;;;;;;20616;6748;308454;-73
2022/05/05 05:12:37;;;;;;;9.10;8.50;;;15.40;54.70;;;;;;20866;6745;117568;-74
2022/05/05 05:15:12;;;;;;;8.73;8.13;;;15.40;54.40;;;;;;20868;6745;116941;-77
2022/05/05 05:17:48;;;;;;;9.60;8.80;;;15.30;54.70;;;;;;20849;6745;123366;-73
2022/05/05 05:20:24;;;;;;;10.05;9.35;;;15.20;55.00;;;;;;20585;6758;282193;-73
2022/05/05 05:22:59;;;;;;;10.80;10.10;;;15.50;54.30;;;;;;20658;6743;304234;-73
2022/05/05 05:25:35;;;;;;;10.13;9.45;;;16.00;53.40;;;;;;20637;6742;307046;-74
2022/05/05 05:28:11;;;;;;;10.17;9.57;;;16.30;53.00;;;;;;20873;6742;117733;-74
2022/05/05 05:30:46;;;;;;;8.67;8.07;;;16.30;53.20;;;;;;20794;6742;117699;-73
2022/05/05 05:33:21;;;;;;;8.67;8.07;;;16.10;53.60;;;;;;20847;6747;116962;-74
2022/05/05 05:35:57;;;;;;;8.50;7.97;;;16.00;53.40;;;;;;20806;6762;116494;-74
2022/05/05 05:38:33;;;;;;;9.57;8.88;;;16.20;53.30;;;;;;20533;6781;307355;-74
2022/05/05 05:41:09;;;;;;;9.23;8.57;;;16.10;53.30;;;;;;20693;6772;117699;-74
2022/05/05 05:43:45;;;;;;;10.10;9.57;;;16.20;53.20;;;;;;20615;6749;335713;-74
2022/05/05 05:46:20;;;;;;;9.70;9.17;;;16.40;53.00;;;;;;20752;6778;117352;-73
2022/05/05 05:48:56;;;;;;;8.50;8.03;;;16.40;53.00;;;;;;20805;6763;118636;-73
2022/05/05 05:51:32;;;;;;;14.82;13.70;;;16.10;53.30;;;;;;20468;6777;338607;-77
2022/05/05 05:54:09;;;;;;;8.33;7.93;;;16.30;53.10;;;;;;20778;6771;121810;-75
2022/05/05 05:56:45;;;;;;;8.30;7.80;;;16.30;53.30;;;;;;20816;6758;118858;-75
2022/05/05 05:59:21;;;;;;;9.38;8.77;;;16.40;53.10;;;;;;20605;6757;317509;-75
2022/05/05 06:04:53;;;;;;;9.88;9.27;;;16.40;53.00;;;;;;20596;6760;307874;-75
2022/05/05 06:07:36;;;;;;;9.37;8.80;;;16.70;52.80;;;;;;20846;6501;276994;-75
2022/05/05 06:10:02;;;;;;;8.65;7.97;;;17.00;52.90;;;;;;20881;6793;117278;-74
2022/05/05 06:12:27;;;;;;;9.40;8.82;;;17.00;52.90;;;;;;20489;6847;279771;-74
2022/05/05 06:14:53;;;;;;;9.03;8.53;;;17.10;52.70;;;;;;20700;6845;118377;-74
2022/05/05 06:17:18;;;;;;;8.57;7.97;;;17.00;52.70;;;;;;20706;6846;117023;-74
2022/05/05 06:19:44;;;;;;;9.80;9.10;;;17.10;52.20;;;;;;20522;6833;311907;-74
2022/05/05 06:22:10;;;;;;;8.00;7.60;;;17.00;52.10;;;;;;20773;6827;117304;-74
2022/05/05 06:24:36;;;;;;;7.63;7.23;;;17.00;52.30;;;;;;20776;6827;119509;-75
2022/05/05 06:27:01;;;;;;;9.23;8.63;;;16.80;52.80;;;;;;20557;6827;307974;-75
2022/05/05 06:29:27;;;;;;;8.57;8.00;;;17.10;52.70;;;;;;20775;6827;117417;-75
2022/05/05 06:31:52;;;;;;;9.80;9.15;;;17.10;52.60;;;;;;20538;6827;341840;-75
2022/05/05 06:34:19;;;;;;;8.13;7.63;;;17.40;52.60;;;;;;20787;6827;117222;-75
2022/05/05 06:36:44;;;;;;;9.27;8.73;;;17.40;52.30;;;;;;20575;6827;307138;-75
2022/05/05 06:39:10;;;;;;;8.80;8.30;;;17.50;51.60;;;;;;20570;6827;307623;-75
2022/05/05 06:41:35;;;;;;;8.37;7.87;;;17.80;51.60;;;;;;20760;6827;121184;-76
2022/05/05 06:44:04;;;;;;;9.30;8.70;;;17.70;51.60;;;;;;20465;6844;312577;-75
2022/05/05 06:46:30;;;;;;;8.90;8.38;;;17.80;51.90;;;;;;20494;6849;302108;-75
2022/05/05 06:48:56;;;;;;;8.90;8.40;;;18.00;50.60;;;;;;20509;6843;308866;-75
2022/05/05 06:51:22;;;;;;;9.05;8.55;;;18.10;50.20;;;;;;20514;6843;278461;-76
2022/05/05 06:53:47;;;;;;;8.47;7.77;;;18.20;50.80;;;;;;20707;6843;122730;-75
2022/05/05 06:56:13;;;;;;;8.93;8.43;;;17.90;50.50;;;;;;20516;6843;307571;-75
2022/05/05 06:58:40;;;;;;;9.38;8.77;;;17.90;50.70;;;;;;20503;6843;312085;-75
2022/05/05 07:05:23;;;;;;;9.23;8.65;;;17.70;50.80;;;;;;20496;6843;303364;-75
2022/05/05 07:06:18;;;;;;;8.80;8.20;;;17.60;51.70;;;;;;20642;6843;118980;-75
2022/05/05 07:11:30;;;;;;;8.20;7.70;;;17.30;52.10;;;;;;20720;6843;117509;-74
2022/05/05 07:13:56;;;;;;;8.32;7.82;;;16.90;52.90;;;;;;20691;6843;117964;-75
2022/05/05 07:16:21;;;;;;;9.32;8.82;;;16.90;52.90;;;;;;20499;6843;336783;-75
2022/05/05 07:18:47;;;;;;;8.90;8.40;;;17.10;52.70;;;;;;20521;6841;307674;-76
2022/05/05 07:21:13;;;;;;;9.13;8.63;;;17.50;51.40;;;;;;20514;6842;317006;-74
2022/05/05 07:23:38;;;;;;;9.40;8.80;;;17.70;51.10;;;;;;20483;6843;308229;-75
2022/05/05 07:26:04;;;;;;;8.67;8.17;;;17.90;51.20;;;;;;20730;6843;120673;-75
2022/05/05 07:28:29;;;;;;;9.40;8.90;;;17.70;51.20;;;;;;20525;6843;279824;-75
2022/05/05 07:30:55;;;;;;;8.37;7.97;;;17.70;51.50;;;;;;20707;6843;121882;-76
2022/05/05 07:33:20;;;;;;;9.20;8.65;;;17.50;51.60;;;;;;20520;6843;282621;-73
2022/05/05 07:35:47;;;;;;;8.90;8.30;;;17.50;51.80;;;;;;20495;6843;285322;-73
2022/05/05 07:38:12;;;;;;;9.50;9.00;;;17.70;51.50;;;;;;20513;6843;278777;-73
2022/05/05 07:40:38;;;;;;;9.63;9.13;;;17.90;51.90;;;;;;20517;6843;278104;-73
2022/05/05 07:43:03;;;;;;;9.63;9.03;;;18.00;51.50;;;;;;20510;6843;307616;-74
2022/05/05 07:45:29;;;;;;;8.23;7.82;;;18.20;51.10;;;;;;20501;6843;294491;-75
2022/05/05 07:47:59;;;;;;;8.70;8.10;;;18.20;51.10;;;;;;20711;6843;117795;-76
2022/05/05 07:50:21;;;;;;;9.23;8.73;;;18.00;51.30;;;;;;20521;6843;309748;-79
2022/05/05 07:52:47;;;;;;;8.53;8.13;;;17.90;51.20;;;;;;20752;6843;121045;-77
2022/05/05 07:55:13;;;;;;;9.30;8.60;;;17.70;51.60;;;;;;20783;6843;116469;-78
2022/05/05 07:57:41;;;;;;;9.00;8.30;;;17.50;52.30;;;;;;20741;6843;117865;-81
2022/05/05 08:00:07;;;;;;;8.17;7.77;;;17.20;52.80;;;;;;20757;6843;119206;-84
2022/05/05 08:02:35;;;;;;;9.40;8.80;;;17.00;53.20;;;;;;20555;6843;329299;-80
2022/05/05 08:05:00;;;;;;;10.00;9.40;;;17.20;53.40;;;;;;20578;6843;335546;-83
2022/05/05 08:07:29;;;;;;;9.13;8.40;;;17.50;52.70;;;;;;20762;6843;119045;-81
2022/05/05 08:09:55;;;;;;;8.80;8.30;;;17.50;52.50;;;;;;20761;6843;116965;-83
2022/05/05 08:12:20;;;;;;;10.57;9.98;;;17.20;52.70;;;;;;20579;6844;306160;-78
2022/05/05 08:14:47;;;;;;;9.80;9.20;;;17.30;53.00;;;;;;20794;6847;117030;-80
2022/05/05 08:17:14;;;;;;;10.80;9.90;;;17.30;53.80;;;;;;20571;6842;307895;-75
2022/05/05 08:19:40;;;;;;;11.60;10.90;;;17.30;53.80;;;;;;20583;6834;301259;-77
2022/05/05 08:22:09;;;;;;;9.40;8.70;;;17.50;54.00;;;;;;20844;6834;67742;-81
2022/05/05 08:30:07;;;;;;;9.30;8.80;;;16.80;54.90;;;;;;20848;6832;67769;-79
2022/05/05 08:32:33;;;;;;;10.13;9.43;;;16.70;55.30;;;;;;20791;6833;116046;-74
2022/05/05 08:35:00;;;;;;;11.20;10.40;;;16.70;55.80;;;;;;20592;6833;310893;-78
2022/05/05 08:37:26;;;;;;;9.93;9.13;;;16.70;55.80;;;;;;20817;6833;118731;-81
2022/05/05 08:39:52;;;;;;;11.47;10.53;;;16.70;55.50;;;;;;20809;6833;116782;-81
2022/05/05 08:42:18;;;;;;;10.67;9.97;;;16.50;55.90;;;;;;20858;6833;67532;-80
2022/05/05 08:44:45;;;;;;;10.90;10.20;;;16.40;56.70;;;;;;20857;6829;67678;-81
2022/05/05 08:47:11;;;;;;;13.23;12.20;;;16.20;57.40;;;;;;20627;6829;338537;-80
2022/05/05 08:49:39;;;;;;;13.55;12.55;;;16.40;59.60;;;;;;20610;6829;334931;-82
2022/05/05 08:52:05;;;;;;;12.03;11.23;;;16.80;58.70;;;;;;20817;6829;117777;-80
2022/05/05 08:54:31;;;;;;;10.70;9.87;;;16.80;58.20;;;;;;20824;6829;117934;-80
2022/05/05 08:56:56;;;;;;;11.07;10.27;;;16.60;58.30;;;;;;20805;6829;116915;-85
2022/05/05 08:59:22;;;;;;;12.50;10.67;;;16.40;58.40;;;;;;20863;6829;67678;-83
2022/05/05 09:01:48;;;;;;;12.77;11.87;;;16.50;58.40;;;;;;20593;6829;305825;-78
2022/05/05 09:04:14;;;;;;;11.90;11.10;;;16.60;58.50;;;;;;20788;6829;121469;-80
2022/05/05 09:06:39;;;;;;;12.90;12.00;;;16.60;58.10;;;;;;20563;6829;277932;-76
2022/05/05 09:09:06;;;;;;;11.30;10.43;;;16.80;58.10;;;;;;20765;6829;118022;-75
2022/05/05 09:11:30;;;;;;;11.98;11.02;;;16.80;58.10;;;;;;20555;6829;282070;-72
2022/05/05 09:13:57;;;;;;;11.97;11.17;;;17.30;55.20;;;;;;20534;6829;307565;-75
2022/05/05 09:16:22;;;;;;;12.30;11.40;;;17.20;55.50;;;;;;20501;6829;329370;-72
2022/05/05 09:18:48;;;;;;;12.00;11.10;;;17.50;54.00;;;;;;20536;6829;313294;-72
2022/05/05 09:21:13;;;;;;;12.73;11.80;;;17.70;52.40;;;;;;20557;6829;298501;-71
2022/05/05 09:26:05;;;;;;;10.37;9.60;;;17.50;53.10;;;;;;20018;6829;117680;-71
2022/05/05 09:28:31;;;;;;;11.47;10.60;;;17.10;53.70;;;;;;20547;6829;299113;-71
2022/05/05 09:31:04;;;;;;;11.02;10.23;;;17.40;53.50;;;;;;20543;6829;318352;-71
2022/05/05 09:33:40;;;;;;;10.97;10.27;;;17.40;53.50;;;;;;20764;6829;118409;-75
2022/05/05 09:36:12;;;;;;;11.23;10.43;;;17.30;53.90;;;;;;20759;6829;118199;-72
2022/05/05 09:38:54;;;;;;;12.87;12.07;;;17.10;54.80;;;;;;20507;6829;277483;-72
2022/05/05 09:41:28;;;;;;;13.50;12.60;;;17.10;55.40;;;;;;20557;6828;278353;-72
2022/05/05 09:43:55;;;;;;;13.30;12.40;;;17.50;55.80;;;;;;20543;6829;337754;-73
2022/05/05 09:46:25;;;;;;;11.93;11.13;;;17.60;55.20;;;;;;20769;6829;119208;-71
2022/05/05 09:48:50;;;;;;;15.37;14.20;;;17.50;55.50;;;;;;20566;6829;281491;-70
2022/05/05 09:51:17;;;;;;;11.97;11.20;;;17.60;56.40;;;;;;20772;6829;119464;-70
2022/05/05 09:59:17;;;;;;;12.60;11.70;;;17.70;55.00;;;;;;20559;6828;341388;-70
2022/05/05 10:01:44;;;;;;;11.33;10.43;;;17.90;55.30;;;;;;20742;6828;118135;-69
2022/05/05 10:04:09;;;;;;;11.40;10.30;;;17.50;56.00;;;;;;20738;6828;122748;-70
2022/05/05 10:06:34;;;;;;;11.40;10.60;;;17.50;56.00;;;;;;20759;6828;117569;-70
2022/05/05 10:09:03;;;;;;;10.20;9.50;;;17.30;56.20;;;;;;20766;6828;118112;-70
2022/05/05 10:11:29;;;;;;;12.13;11.33;;;17.30;55.80;;;;;;20556;6828;307410;-69
2022/05/05 10:13:56;;;;;;;10.27;9.57;;;17.20;55.70;;;;;;20756;6828;123306;-70
2022/05/05 10:16:21;;;;;;;12.13;11.13;;;17.40;54.50;;;;;;20562;6828;307447;-70
2022/05/05 10:18:47;;;;;;;14.68;13.68;;;17.60;54.20;;;;;;20559;6828;308033;-70
2022/05/05 10:21:13;;;;;;;12.07;10.77;;;17.60;54.20;;;;;;20763;6828;118006;-70
2022/05/05 10:23:42;;;;;;;12.40;11.40;;;17.10;55.30;;;;;;20747;6828;147088;-70
2022/05/05 10:26:08;;;;;;;13.73;12.73;;;17.10;55.30;;;;;;20540;6828;277997;-70
2022/05/05 10:28:39;;;;;;;12.75;11.93;;;17.20;56.40;;;;;;20550;6828;308767;-69
2022/05/05 10:31:31;;;;;;;11.93;11.07;;;17.40;56.40;;;;;;20773;6828;118424;-69
2022/05/05 10:34:00;;;;;;;13.63;12.53;;;17.30;56.50;;;;;;20754;6828;117644;-69
2022/05/05 10:36:26;;;;;;;14.80;13.80;;;17.00;57.40;;;;;;20559;6828;278788;-69
2022/05/05 10:38:52;;;;;;;12.53;11.50;;;17.20;58.40;;;;;;20767;6828;123259;-69
2022/05/05 10:41:30;;;;;;;14.23;13.30;;;17.20;58.00;;;;;;20559;6828;277761;-68
2022/05/05 10:44:16;;;;;;;15.80;14.80;;;17.80;56.50;;;;;;20541;6828;277848;-69
2022/05/05 10:46:52;;;;;;;15.50;14.37;;;17.80;56.50;;;;;;20745;6828;118529;-69
2022/05/05 10:49:34;;;;;;;15.63;14.63;;;17.80;56.80;;;;;;20561;6828;307842;-69
2022/05/05 10:52:12;;;;;;;18.63;16.93;;;17.90;56.00;;;;;;20759;6826;120826;-69
2022/05/05 10:54:34;;;;;;;16.10;14.80;;;17.80;56.30;;;;;;20757;6827;117496;-69
2022/05/05 10:57:23;;;;;;;15.23;13.93;;;17.70;57.00;;;;;;20780;6827;117912;-68
2022/05/05 11:00:18;;;;;;;14.90;13.90;;;17.60;57.00;;;;;;20758;6827;117563;-69
2022/05/05 11:02:40;;;;;;;15.77;14.43;;;17.40;57.10;;;;;;20761;6827;117597;-69
2022/05/05 11:05:32;;;;;;;16.20;15.10;;;17.30;57.20;;;;;;20467;6828;277903;-70
2022/05/05 11:08:14;;;;;;;17.73;16.40;;;17.70;55.50;;;;;;20534;6828;307130;-70
2022/05/05 11:13:41;;;;;;;16.50;15.40;;;18.60;53.00;;;;;;20539;6828;341960;-72
2022/05/05 11:22:11;;;;;;;16.12;15.10;;;19.00;54.30;;;;;;20574;6828;311466;-73
2022/05/05 11:24:36;;;;;;;16.43;15.23;;;19.30;52.30;;;;;;20764;6828;123440;-72
2022/05/05 11:27:02;;;;;;;16.07;15.03;;;19.30;53.20;;;;;;20546;6828;311676;-72
2022/05/05 11:29:27;;;;;;;15.60;14.57;;;19.40;51.60;;;;;;20549;6828;306955;-71
2022/05/05 11:31:56;;;;;;;16.87;15.67;;;19.70;50.80;;;;;;20546;6828;286147;-70
2022/05/05 11:34:22;;;;;;;18.63;17.43;;;19.90;52.20;;;;;;20519;6828;307462;-71
2022/05/05 11:36:48;;;;;;;15.15;14.15;;;20.10;51.30;;;;;;20742;6828;117566;-73
2022/05/05 11:39:14;;;;;;;15.63;14.53;;;20.10;51.30;;;;;;20783;6828;68555;-75
2022/05/05 11:41:41;;;;;;;14.05;13.02;;;19.70;52.20;;;;;;20725;6828;117425;-73
2022/05/05 11:44:17;;;;;;;15.00;13.97;;;19.70;52.20;;;;;;20775;6828;119383;-72
2022/05/05 11:46:41;;;;;;;31.13;29.07;;;19.60;52.60;;;;;;20564;6828;278274;-72
2022/05/05 11:49:08;;;;;;;15.25;14.35;;;19.80;50.40;;;;;;20573;6828;278201;-74
2022/05/05 11:51:34;;;;;;;16.43;15.33;;;20.00;50.60;;;;;;20561;6828;308653;-74
2022/05/05 11:54:07;;;;;;;15.03;13.93;;;20.20;51.00;;;;;;20746;6828;122510;-73
2022/05/05 11:56:29;;;;;;;14.13;13.20;;;20.10;50.90;;;;;;20733;6828;117922;-75
2022/05/05 12:01:41;;;;;;;15.13;14.13;;;20.00;51.60;;;;;;20539;6828;337271;-72
2022/05/05 12:04:05;;;;;;;15.00;14.10;;;20.30;49.00;;;;;;20559;6826;335979;-73
2022/05/05 12:06:32;;;;;;;14.83;13.83;;;20.50;49.10;;;;;;20766;6827;121937;-72
2022/05/05 12:08:56;;;;;;;15.03;13.93;;;20.40;50.00;;;;;;20767;6827;118687;-71
2022/05/05 12:11:22;;;;;;;15.53;14.43;;;20.10;50.80;;;;;;20560;6827;308181;-71
2022/05/05 12:13:52;;;;;;;14.13;13.20;;;20.20;50.30;;;;;;20734;6827;150111;-72
2022/05/05 12:16:18;;;;;;;14.47;13.40;;;20.20;50.50;;;;;;20773;6828;118095;-71
2022/05/05 12:18:51;;;;;;;15.23;14.13;;;20.00;51.50;;;;;;20778;6828;117539;-71
2022/05/05 12:21:20;;;;;;;14.13;13.13;;;20.00;51.50;;;;;;20767;6828;117441;-71
2022/05/05 12:23:46;;;;;;;14.90;13.70;;;20.00;52.20;;;;;;20751;6828;120556;-72
2022/05/05 12:26:11;;;;;;;16.30;15.00;;;19.90;52.40;;;;;;20736;6828;119239;-72
2022/05/05 12:28:50;;;;;;;14.23;13.33;;;19.90;52.40;;;;;;20778;6828;117444;-72
2022/05/05 12:31:22;;;;;;;13.47;12.57;;;19.80;52.60;;;;;;20772;6828;117536;-72
2022/05/05 12:33:49;;;;;;;13.93;13.10;;;19.70;52.50;;;;;;20531;6828;307851;-72
2022/05/05 12:36:15;;;;;;;13.10;12.00;;;19.90;49.60;;;;;;20776;6828;117691;-72
2022/05/05 12:38:40;;;;;;;12.05;11.30;;;19.90;50.30;;;;;;20768;6828;118604;-72
2022/05/05 12:41:06;;;;;;;11.63;10.82;;;19.90;51.20;;;;;;20779;6828;118053;-72
2022/05/05 12:43:31;;;;;;;11.88;11.07;;;19.80;51.40;;;;;;20770;6828;117905;-72
2022/05/05 12:45:57;;;;;;;13.30;12.50;;;19.80;51.40;;;;;;20543;6828;296046;-72
2022/05/05 12:48:22;;;;;;;13.55;12.65;;;20.10;49.30;;;;;;20765;6828;117612;-71
2022/05/05 12:50:48;;;;;;;14.63;13.70;;;20.30;49.60;;;;;;20545;6828;287569;-72
2022/05/05 13:01:43;;;;;;;17.10;15.93;;;20.80;49.80;;;;;;20542;6828;278393;-71
2022/05/05 13:04:10;;;;;;;16.85;15.48;;;21.20;48.40;;;;;;20560;6828;341626;-72
2022/05/05 13:06:35;;;;;;;14.52;13.57;;;21.10;48.30;;;;;;20554;6828;282082;-72
2022/05/05 13:09:02;;;;;;;13.97;13.10;;;21.40;46.90;;;;;;20565;6828;277995;-76
2022/05/05 13:11:29;;;;;;;13.10;12.30;;;21.50;45.80;;;;;;20767;6828;118196;-73
2022/05/05 13:13:55;;;;;;;12.40;11.47;;;21.10;47.70;;;;;;20756;6828;119361;-75
2022/05/05 13:16:21;;;;;;;12.73;11.93;;;21.10;47.70;;;;;;20779;6826;117766;-73
2022/05/05 13:18:46;;;;;;;15.17;14.10;;;20.90;48.10;;;;;;20557;6827;341585;-74
2022/05/05 13:21:12;;;;;;;14.87;13.87;;;21.00;47.10;;;;;;20763;6827;117598;-73
2022/05/05 13:23:38;;;;;;;17.27;16.10;;;21.00;47.90;;;;;;20542;6827;278394;-74
2022/05/05 13:26:03;;;;;;;17.93;16.67;;;21.10;46.40;;;;;;20565;6828;307836;-74
2022/05/05 13:28:29;;;;;;;16.90;15.60;;;21.30;46.60;;;;;;20770;6828;117621;-73
2022/05/05 13:30:54;;;;;;;16.48;15.10;;;21.20;47.40;;;;;;20775;6828;119189;-73
2022/05/05 13:33:21;;;;;;;15.50;14.40;;;20.70;49.00;;;;;;20777;6828;117985;-73
2022/05/05 13:35:48;;;;;;;16.03;14.93;;;20.70;48.40;;;;;;20543;6828;304483;-73
2022/05/05 13:38:13;;;;;;;17.58;16.27;;;20.90;47.90;;;;;;20550;6828;306957;-73
2022/05/05 13:40:39;;;;;;;17.27;16.03;;;21.20;47.30;;;;;;20564;6828;307289;-73
2022/05/05 13:43:05;;;;;;;15.87;14.67;;;21.40;46.30;;;;;;20772;6828;118617;-73